Time;durP1;ratioP1;P1;durP2;ratioP2;P2;SDS_P1;SDS_P2;PMS_P1;PMS_P2;Temp;Humidity;BMP_temperature;BMP_pressure;BME280_temperature;BME280_humidity;BME280_pressure;Samples;Min_cycle;Max_cycle;Signal;HPM_P1;HPM_P2
2022/06/10 00:02:17;;;;;;;;;;;;;;;17.37;51.11;100425.45;1709431;84;20322;-61
2022/06/10 00:05:23;;;;;;;;;;;;;;;17.40;51.18;100431.08;1709387;83;20550;-63
2022/06/10 00:08:29;;;;;;;;;;;;;;;17.40;51.22;100436.09;1724077;82;20212;-62
2022/06/10 00:11:33;;;;;;;;;;;;;;;17.42;51.28;100434.48;1743064;82;20583;-63
2022/06/10 00:14:39;;;;;;;;;;;;;;;17.42;51.31;100440.02;1709177;84;20207;-62
2022/06/10 00:17:44;;;;;;;;;;;;;;;17.42;51.37;100438.63;1745143;82;20244;-65
2022/06/10 00:20:49;;;;;;;;;;;;;;;17.42;51.40;100438.63;1742285;82;20220;-64
2022/06/10 00:23:53;;;;;;;;;;;;;;;17.43;51.45;100438.94;1744946;82;20200;-65
2022/06/10 00:26:59;;;;;;;;;;;;;;;17.40;51.43;100443.53;1744602;82;20267;-62
2022/06/10 00:30:03;;;;;;;;;;;;;;;17.37;51.44;100442.06;1740313;82;20188;-64
2022/06/10 00:33:06;;;;;;;;;;;;;;;17.33;51.45;100437.19;1744813;82;20187;-60
2022/06/10 00:36:15;;;;;;;;;;;;;;;17.30;51.44;100445.38;1743138;82;20240;-62
2022/06/10 00:39:19;;;;;;;;;;;;;;;17.29;51.53;100440.06;1745295;82;20248;-63
2022/06/10 00:42:24;;;;;;;;;;;;;;;17.29;51.58;100442.83;1743330;82;20325;-63
2022/06/10 00:46:09;;;;;;;;;;;;;;;17.26;51.56;100446.03;1744882;82;20200;-64
2022/06/10 00:49:19;;;;;;;;;;;;;;;17.24;51.60;100450.92;1709150;84;20210;-63
2022/06/10 00:52:31;;;;;;;;;;;;;;;17.21;51.59;100446.69;1745152;82;20200;-63
2022/06/10 00:55:37;;;;;;;;;;;;;;;17.18;51.63;100445.73;1736953;82;20176;-62
2022/06/10 00:59:07;;;;;;;;;;;;;;;17.14;51.61;100447.78;1743600;82;20196;-62
2022/06/10 01:02:15;;;;;;;;;;;;;;;17.10;51.63;100446.49;1742729;82;20184;-64
2022/06/10 01:05:28;;;;;;;;;;;;;;;17.05;51.68;100459.59;1745054;82;20216;-63
2022/06/10 01:08:33;;;;;;;;;;;;;;;17.04;51.78;100441.83;1744693;82;20343;-61
2022/06/10 01:11:52;;;;;;;;;;;;;;;17.04;51.83;100450.99;1744087;82;20240;-62
2022/06/10 01:15:10;;;;;;;;;;;;;;;17.03;51.87;100458.13;1738789;81;20204;-62
2022/06/10 01:18:29;;;;;;;;;;;;;;;17.03;51.89;100445.67;1743679;82;20216;-63
2022/06/10 01:21:55;;;;;;;;;;;;;;;17.00;51.84;100457.17;1743890;82;20256;-64
2022/06/10 01:25:17;;;;;;;;;;;;;;;16.94;51.85;100448.33;1709339;84;20199;-62
2022/06/10 01:28:54;;;;;;;;;;;;;;;16.92;51.93;100458.23;1743335;82;20539;-63
2022/06/10 01:32:02;;;;;;;;;;;;;;;16.88;51.93;100463.02;1709126;84;20563;-63
2022/06/10 01:35:25;;;;;;;;;;;;;;;16.81;51.91;100463.02;1743351;82;20565;-62
2022/06/10 01:39:05;;;;;;;;;;;;;;;16.76;51.94;100463.37;1743358;82;20196;-61
2022/06/10 01:42:22;;;;;;;;;;;;;;;16.70;52.01;100465.05;1664134;86;20184;-63
2022/06/10 01:45:40;;;;;;;;;;;;;;;16.66;52.11;100469.33;1709113;84;20206;-61
2022/06/10 01:49:00;;;;;;;;;;;;;;;16.63;52.20;100475.80;1743548;82;20188;-62
2022/06/10 01:52:12;;;;;;;;;;;;;;;16.58;52.24;100472.30;1743833;82;20227;-63
2022/06/10 01:55:38;;;;;;;;;;;;;;;16.57;52.29;100475.28;1743352;82;20181;-63
2022/06/10 01:58:47;;;;;;;;;;;;;;;16.54;52.35;100474.33;1709250;84;20202;-63
2022/06/10 02:01:55;;;;;;;;;;;;;;;16.56;52.48;100473.03;1743586;82;20192;-63
2022/06/10 02:05:09;;;;;;;;;;;;;;;16.58;52.55;100482.49;1709108;84;20195;-62
2022/06/10 02:08:19;;;;;;;;;;;;;;;16.59;52.53;100475.89;1743397;82;20512;-63
2022/06/10 02:11:26;;;;;;;;;;;;;;;16.58;52.48;100482.49;1737295;80;20204;-63
2022/06/10 02:14:37;;;;;;;;;;;;;;;16.58;52.57;100489.41;1709386;84;20206;-62
2022/06/10 02:17:47;;;;;;;;;;;;;;;16.57;52.57;100484.95;1709310;84;20550;-63
2022/06/10 02:21:01;;;;;;;;;;;;;;;16.58;52.62;100476.45;1709407;84;20183;-62
2022/06/10 02:24:30;;;;;;;;;;;;;;;16.57;52.62;100485.78;1709440;84;20202;-63
2022/06/10 02:27:37;;;;;;;;;;;;;;;16.60;52.69;100480.38;1709485;84;20502;-62
2022/06/10 02:30:46;;;;;;;;;;;;;;;16.63;52.74;100489.11;1709373;84;20546;-61
2022/06/10 02:33:54;;;;;;;;;;;;;;;16.66;52.71;100489.20;1688567;84;20210;-63
2022/06/10 02:37:08;;;;;;;;;;;;;;;16.64;52.71;100483.02;1709348;84;20237;-63
2022/06/10 02:40:17;;;;;;;;;;;;;;;16.68;52.80;100491.23;1690751;84;20218;-62
2022/06/10 02:43:35;;;;;;;;;;;;;;;16.70;52.81;100497.41;1709363;84;20226;-63
2022/06/10 02:46:45;;;;;;;;;;;;;;;16.74;52.85;100499.52;1709340;84;20218;-63
2022/06/10 02:49:51;;;;;;;;;;;;;;;16.79;52.86;100500.27;1709288;84;20230;-62
2022/06/10 02:52:57;;;;;;;;;;;;;;;16.83;52.90;100509.81;1709382;84;20242;-63
2022/06/10 02:56:02;;;;;;;;;;;;;;;16.87;52.95;100509.73;1709488;84;20190;-64
2022/06/10 03:02:37;;;;;;;;;;;;;;;17.05;53.10;100513.53;1709957;84;20178;-64
2022/06/10 03:05:45;;;;;;;;;;;;;;;17.13;53.10;100523.52;1709902;84;20222;-64
2022/06/10 03:08:53;;;;;;;;;;;;;;;17.21;53.17;100521.39;1709855;84;20507;-64
2022/06/10 03:12:16;;;;;;;;;;;;;;;17.28;53.14;100515.30;1709965;82;20178;-63
2022/06/10 03:15:24;;;;;;;;;;;;;;;17.35;53.18;100513.90;1704906;84;20214;-62
2022/06/10 03:18:45;;;;;;;;;;;;;;;17.43;53.24;100514.53;1744236;82;20189;-61
2022/06/10 03:21:59;;;;;;;;;;;;;;;17.54;53.30;100515.27;1743968;82;20185;-60
2022/06/10 03:25:21;;;;;;;;;;;;;;;17.64;53.29;100514.30;1743728;82;20536;-59
2022/06/10 03:28:39;;;;;;;;;;;;;;;17.72;53.27;100515.96;1709750;84;20208;-61
2022/06/10 03:31:48;;;;;;;;;;;;;;;17.79;53.29;100514.03;1744229;82;20440;-62
2022/06/10 03:35:00;;;;;;;;;;;;;;;17.89;53.31;100518.55;1709632;84;20281;-60
2022/06/10 03:38:07;;;;;;;;;;;;;;;17.99;53.35;100520.32;1743792;82;20227;-61
2022/06/10 03:41:14;;;;;;;;;;;;;;;18.08;53.37;100527.30;1709620;84;20190;-60
2022/06/10 03:44:23;;;;;;;;;;;;;;;18.16;53.37;100515.96;1744296;82;20501;-62
2022/06/10 03:47:34;;;;;;;;;;;;;;;18.24;53.40;100522.63;1709743;84;20219;-62
2022/06/10 03:50:41;;;;;;;;;;;;;;;18.32;53.45;100520.12;1744153;82;20196;-62
2022/06/10 03:53:47;;;;;;;;;;;;;;;18.42;53.46;100519.14;1709620;84;20499;-61
2022/06/10 03:56:55;;;;;;;;;;;;;;;18.50;53.47;100523.90;1743796;82;20216;-63
2022/06/10 03:59:58;;;;;;;;;;;;;;;18.60;53.46;100521.46;1709170;84;20226;-63
2022/06/10 04:03:03;;;;;;;;;;;;;;;18.71;53.50;100519.91;1743304;82;20188;-61
2022/06/10 04:06:08;;;;;;;;;;;;;;;18.84;53.55;100526.19;1742956;82;20192;-60
2022/06/10 04:09:17;;;;;;;;;;;;;;;18.96;53.52;100522.15;1708525;84;20531;-63
2022/06/10 04:12:25;;;;;;;;;;;;;;;19.09;53.48;100522.04;1743738;81;20267;-61
2022/06/10 04:15:32;;;;;;;;;;;;;;;19.20;53.44;100526.28;1744151;82;20208;-61
2022/06/10 04:18:39;;;;;;;;;;;;;;;19.33;53.42;100525.89;1709158;84;20222;-62
2022/06/10 04:21:44;;;;;;;;;;;;;;;19.44;53.40;100518.20;1745158;82;20233;-61
2022/06/10 04:24:41;;;;;;;;;;;;;;;19.56;53.40;100530.23;1744830;82;20188;-63
2022/06/10 04:27:33;;;;;;;;;;;;;;;19.66;53.37;100523.08;1709180;84;20198;-61
2022/06/10 04:30:24;;;;;;;;;;;;;;;19.75;53.33;100530.02;1745357;82;20219;-62
2022/06/10 04:33:17;;;;;;;;;;;;;;;19.84;53.29;100534.70;1709252;84;20274;-61
2022/06/10 04:36:24;;;;;;;;;;;;;;;19.95;53.22;100545.03;1745256;82;20200;-62
2022/06/10 04:39:29;;;;;;;;;;;;;;;20.04;53.16;100549.22;1744886;82;20528;-61
2022/06/10 04:42:34;;;;;;;;;;;;;;;20.15;53.14;100548.47;1741029;81;20230;-62
2022/06/10 04:45:41;;;;;;;;;;;;;;;20.26;53.17;100552.70;1734243;82;20218;-63
2022/06/10 04:48:44;;;;;;;;;;;;;;;20.36;53.19;100550.19;1734031;83;20381;-62
2022/06/10 04:51:51;;;;;;;;;;;;;;;20.49;53.13;100549.14;1734390;82;20218;-63
2022/06/10 04:54:57;;;;;;;;;;;;;;;20.61;53.06;100545.88;1749910;80;20299;-63
2022/06/10 04:58:02;;;;;;;;;;;;;;;20.72;52.98;100549.24;1770568;81;20182;-62
2022/06/10 05:01:09;;;;;;;;;;;;;;;20.83;52.91;100543.39;1769889;80;20625;-59
2022/06/10 05:04:15;;;;;;;;;;;;;;;20.93;52.85;100540.31;1766823;81;20222;-59
2022/06/10 05:07:19;;;;;;;;;;;;;;;21.07;52.78;100543.24;1749121;81;20520;-59
2022/06/10 05:10:25;;;;;;;;;;;;;;;21.20;52.80;100555.52;1747478;81;20623;-61
2022/06/10 05:13:34;;;;;;;;;;;;;;;21.33;52.77;100553.05;1741624;82;20651;-63
2022/06/10 05:16:40;;;;;;;;;;;;;;;21.47;52.70;100548.95;1760654;81;20209;-61
2022/06/10 05:19:47;;;;;;;;;;;;;;;21.59;52.59;100552.57;1771033;81;20202;-62
2022/06/10 05:22:52;;;;;;;;;;;;;;;21.72;52.52;100550.94;1756013;81;20661;-64
2022/06/10 05:25:59;;;;;;;;;;;;;;;21.85;52.41;100547.36;1752683;81;20640;-61
2022/06/10 05:29:08;;;;;;;;;;;;;;;21.96;52.30;100547.88;1771571;81;20324;-58
2022/06/10 05:32:30;;;;;;;;;;;;;;;22.09;52.24;100553.19;1743501;82;20199;-60
2022/06/10 05:35:37;;;;;;;;;;;;;;;22.23;52.14;100555.70;1759810;81;20577;-59
2022/06/10 05:38:44;;;;;;;;;;;;;;;22.36;52.01;100561.00;1767514;81;20213;-59
2022/06/10 05:42:06;;;;;;;;;;;;;;;22.47;51.91;100560.11;1759869;81;20620;-58
2022/06/10 05:45:14;;;;;;;;;;;;;;;22.59;51.81;100559.52;1768956;81;20563;-59
2022/06/10 05:48:19;;;;;;;;;;;;;;;22.70;51.65;100565.06;1767011;81;20535;-60
2022/06/10 05:51:28;;;;;;;;;;;;;;;22.82;51.57;100564.98;1767210;81;20515;-60
2022/06/10 05:54:34;;;;;;;;;;;;;;;22.95;51.46;100566.06;1756925;81;20249;-61
2022/06/10 05:57:41;;;;;;;;;;;;;;;23.08;51.30;100565.75;1747720;81;20518;-60
2022/06/10 06:00:47;;;;;;;;;;;;;;;23.20;51.16;100565.10;1746437;81;20632;-61
2022/06/10 06:03:50;;;;;;;;;;;;;;;23.33;51.01;100567.59;1747589;81;20206;-61
2022/06/10 06:06:55;;;;;;;;;;;;;;;23.45;50.83;100561.39;1738870;81;20214;-59
2022/06/10 06:10:02;;;;;;;;;;;;;;;23.57;50.72;100563.52;1742957;81;20212;-58
2022/06/10 06:13:10;;;;;;;;;;;;;;;23.69;50.55;100565.65;1754028;81;20213;-58
2022/06/10 06:16:21;;;;;;;;;;;;;;;23.80;50.40;100560.50;1751028;81;20204;-60
2022/06/10 06:19:26;;;;;;;;;;;;;;;23.92;50.26;100566.84;1752151;81;20223;-60
2022/06/10 06:22:58;;;;;;;;;;;;;;;24.06;50.12;100563.13;1759554;81;20194;-61
2022/06/10 06:26:17;;;;;;;;;;;;;;;24.16;49.90;100564.13;1762610;81;20208;-61
2022/06/10 06:29:23;;;;;;;;;;;;;;;24.30;49.86;100570.17;1741605;82;20200;-61
2022/06/10 06:32:28;;;;;;;;;;;;;;;24.41;49.68;100571.44;1750699;81;20237;-63
2022/06/10 06:35:34;;;;;;;;;;;;;;;24.52;49.43;100566.80;1761648;80;20244;-63
2022/06/10 06:38:38;;;;;;;;;;;;;;;24.61;49.23;100569.44;1750645;81;20211;-60
2022/06/10 06:41:44;;;;;;;;;;;;;;;24.67;49.04;100565.03;1753029;81;20572;-61
2022/06/10 06:44:55;;;;;;;;;;;;;;;24.76;48.84;100572.42;1744194;81;20663;-61
2022/06/10 06:48:03;;;;;;;;;;;;;;;24.82;48.65;100575.56;1746689;81;20253;-64
2022/06/10 06:51:12;;;;;;;;;;;;;;;24.90;48.50;100570.34;1742269;82;20380;-65
2022/06/10 06:54:19;;;;;;;;;;;;;;;24.99;48.33;100563.68;1746404;81;20202;-62
2022/06/10 06:57:25;;;;;;;;;;;;;;;25.08;48.20;100563.52;1757617;81;20245;-60
2022/06/10 07:00:32;;;;;;;;;;;;;;;25.17;48.02;100568.91;1750845;81;20202;-60
2022/06/10 07:03:39;;;;;;;;;;;;;;;25.28;47.80;100560.02;1741741;82;20255;-61
2022/06/10 07:06:46;;;;;;;;;;;;;;;25.33;47.65;100558.12;1741021;82;20608;-59
2022/06/10 07:09:53;;;;;;;;;;;;;;;25.43;47.48;100561.05;1741942;82;20215;-60
2022/06/10 07:12:59;;;;;;;;;;;;;;;25.49;47.25;100558.56;1749464;81;20205;-61
2022/06/10 07:16:01;;;;;;;;;;;;;;;25.55;47.03;100562.23;1745560;80;20560;-60
2022/06/10 07:19:08;;;;;;;;;;;;;;;25.62;46.93;100562.86;1735331;80;20635;-61
2022/06/10 07:22:14;;;;;;;;;;;;;;;25.69;46.82;100555.89;1741269;82;20205;-61
2022/06/10 07:25:19;;;;;;;;;;;;;;;25.78;46.72;100568.28;1757774;81;20206;-61
2022/06/10 07:28:23;;;;;;;;;;;;;;;25.87;46.52;100565.27;1765015;81;20629;-60
2022/06/10 07:31:30;;;;;;;;;;;;;;;25.93;46.30;100571.20;1772083;81;20210;-60
2022/06/10 07:34:35;;;;;;;;;;;;;;;25.99;46.16;100572.91;1771095;81;20538;-63
2022/06/10 07:37:38;;;;;;;;;;;;;;;26.07;45.99;100567.36;1760761;80;20240;-61
2022/06/10 07:44:19;;;;;;;;;;;;;;;26.20;45.51;100572.48;1749415;81;20250;-61
2022/06/10 07:47:23;;;;;;;;;;;;;;;26.24;45.25;100573.64;1746676;81;20545;-60
2022/06/10 07:50:29;;;;;;;;;;;;;;;26.27;45.08;100569.70;1761837;81;20241;-61
2022/06/10 07:53:35;;;;;;;;;;;;;;;26.32;44.81;100568.91;1742056;82;20552;-60
2022/06/10 07:56:41;;;;;;;;;;;;;;;26.36;44.59;100573.70;1742529;81;20247;-60
2022/06/10 07:59:46;;;;;;;;;;;;;;;26.37;44.29;100569.76;1741399;82;20592;-61
2022/06/10 08:02:49;;;;;;;;;;;;;;;26.37;44.13;100575.92;1768820;81;20206;-62
2022/06/10 08:05:58;;;;;;;;;;;;;;;26.47;44.06;100570.36;1769503;81;20213;-60
2022/06/10 08:09:06;;;;;;;;;;;;;;;26.54;43.81;100566.74;1743911;81;20619;-59
2022/06/10 08:12:13;;;;;;;;;;;;;;;26.57;43.57;100566.19;1752677;80;20222;-60
2022/06/10 08:15:21;;;;;;;;;;;;;;;26.62;43.48;100570.42;1736136;81;20217;-59
2022/06/10 08:25:37;;;;;;;;;;;;;;;26.88;43.04;100558.72;1784163;79;20630;-62
2022/06/10 08:28:47;;;;;;;;;;;;;;;26.95;42.84;100560.69;1803060;79;20216;-60
2022/06/10 08:31:52;;;;;;;;;;;;;;;27.04;42.73;100566.88;1796353;79;20271;-61
2022/06/10 08:35:00;;;;;;;;;;;;;;;27.09;42.51;100562.67;1777690;80;20216;-60
2022/06/10 08:38:08;;;;;;;;;;;;;;;27.17;42.40;100559.86;1776799;80;20258;-67
2022/06/10 08:41:24;;;;;;;;;;;;;;;27.24;42.22;100565.48;1783522;80;20275;-59
2022/06/10 08:44:44;;;;;;;;;;;;;;;27.31;42.01;100569.45;1791049;80;20212;-57
2022/06/10 08:48:15;;;;;;;;;;;;;;;27.38;41.84;100558.78;1763323;81;20258;-60
2022/06/10 08:51:41;;;;;;;;;;;;;;;27.40;41.57;100558.77;1763978;81;20587;-66
2022/06/10 08:55:24;;;;;;;;;;;;;;;27.40;41.26;100555.13;1764572;81;20219;-61
2022/06/10 08:58:35;;;;;;;;;;;;;;;27.43;41.12;100551.16;1748760;81;20215;-57
2022/06/10 09:01:54;;;;;;;;;;;;;;;27.50;40.93;100555.10;1752162;81;20961;-61
2022/06/10 09:05:29;;;;;;;;;;;;;;;27.59;40.80;100566.09;1695838;83;20208;-54
2022/06/10 09:08:38;;;;;;;;;;;;;;;27.69;40.56;100564.09;1695147;84;20620;-55
2022/06/10 09:11:46;;;;;;;;;;;;;;;27.72;40.27;100563.52;1682911;84;20222;-56
2022/06/10 09:14:52;;;;;;;;;;;;;;;27.77;40.11;100560.70;1679156;84;20223;-55
2022/06/10 09:18:00;;;;;;;;;;;;;;;27.88;40.02;100558.73;1675490;85;20246;-56
2022/06/10 09:21:13;;;;;;;;;;;;;;;27.98;39.88;100556.45;1684568;82;20233;-55
2022/06/10 09:24:28;;;;;;;;;;;;;;;28.07;39.74;100561.80;1702852;84;20220;-55
2022/06/10 09:27:38;;;;;;;;;;;;;;;28.15;39.59;100557.81;1703386;84;20240;-54
2022/06/10 09:30:52;;;;;;;;;;;;;;;28.25;39.40;100558.34;1703690;84;20208;-56
2022/06/10 09:34:28;;;;;;;;;;;;;;;28.28;39.15;100550.72;1703537;84;20551;-55
2022/06/10 09:37:38;;;;;;;;;;;;;;;28.33;39.03;100560.56;1703860;84;20220;-54
2022/06/10 09:40:59;;;;;;;;;;;;;;;28.46;39.02;100552.34;1703348;84;20604;-54
2022/06/10 09:44:32;;;;;;;;;;;;;;;28.63;38.97;100556.22;1753077;81;20179;-56
2022/06/10 09:47:55;;;;;;;;;;;;;;;28.73;38.73;100549.13;1748789;81;20248;-54
2022/06/10 09:51:07;;;;;;;;;;;;;;;28.87;38.58;100551.56;1757555;81;20573;-56
2022/06/10 09:54:37;;;;;;;;;;;;;;;28.99;38.45;100555.70;1731584;81;20222;-53
2022/06/10 09:57:54;;;;;;;;;;;;;;;29.09;38.33;100550.59;1729707;83;20254;-55
2022/06/10 10:01:03;;;;;;;;;;;;;;;29.22;38.20;100556.39;1728155;83;20215;-55
2022/06/10 10:04:25;;;;;;;;;;;;;;;29.29;37.99;100551.02;1728163;83;20617;-54
2022/06/10 10:07:41;;;;;;;;;;;;;;;29.33;37.73;100545.89;1755378;81;20208;-55
2022/06/10 10:10:53;;;;;;;;;;;;;;;29.34;37.44;100536.84;1759064;81;20267;-50
2022/06/10 10:14:23;;;;;;;;;;;;;;;29.39;37.39;100546.11;1758990;81;20208;-49
2022/06/10 10:17:35;;;;;;;;;;;;;;;29.50;37.28;100540.64;1759699;81;20204;-49
2022/06/10 10:21:02;;;;;;;;;;;;;;;29.64;37.21;100536.55;1757664;81;20568;-54
2022/06/10 10:24:09;;;;;;;;;;;;;;;29.76;37.14;100539.30;1764092;81;20206;-50
2022/06/10 10:27:18;;;;;;;;;;;;;;;29.93;37.00;100538.82;1763289;81;20442;-55
2022/06/10 10:30:32;;;;;;;;;;;;;;;30.06;36.91;100540.38;1773480;80;20277;-51
2022/06/10 10:33:36;;;;;;;;;;;;;;;30.17;36.75;100543.34;1772526;80;20235;-53
2022/06/10 10:36:59;;;;;;;;;;;;;;;30.21;36.44;100533.70;1762499;81;20575;-50
2022/06/10 10:40:23;;;;;;;;;;;;;;;30.23;36.29;100523.81;1763898;80;20591;-52
2022/06/10 10:43:38;;;;;;;;;;;;;;;30.24;36.12;100524.06;1765051;81;20187;-52
2022/06/10 10:46:49;;;;;;;;;;;;;;;30.37;36.06;100525.31;1767150;80;20218;-51
2022/06/10 10:50:10;;;;;;;;;;;;;;;30.43;35.82;100516.47;1774699;80;20310;-51
2022/06/10 10:53:35;;;;;;;;;;;;;;;30.44;35.63;100519.58;1764757;80;20258;-52
2022/06/10 10:56:47;;;;;;;;;;;;;;;30.48;35.54;100514.98;1785387;80;20220;-53
2022/06/10 10:59:53;;;;;;;;;;;;;;;30.64;35.46;100514.19;1795056;80;20511;-50
2022/06/10 11:03:02;;;;;;;;;;;;;;;30.80;35.32;100517.66;1793329;80;20248;-56
2022/06/10 11:06:12;;;;;;;;;;;;;;;30.87;35.20;100514.73;1772966;80;20788;-55
2022/06/10 11:09:32;;;;;;;;;;;;;;;30.99;35.11;100510.86;1771731;80;20219;-56
2022/06/10 11:12:38;;;;;;;;;;;;;;;31.10;34.98;100509.55;1767265;80;20610;-55
2022/06/10 11:15:48;;;;;;;;;;;;;;;31.16;34.74;100511.13;1755499;80;20232;-60
2022/06/10 11:19:00;;;;;;;;;;;;;;;31.20;34.56;100511.36;1763422;80;20443;-60
2022/06/10 11:22:24;;;;;;;;;;;;;;;31.25;34.36;100507.04;1794768;80;20255;-60
2022/06/10 11:25:36;;;;;;;;;;;;;;;31.28;34.23;100504.44;1795800;79;20271;-62
2022/06/10 11:28:44;;;;;;;;;;;;;;;31.37;34.17;100511.66;1775289;80;20208;-59
2022/06/10 11:32:00;;;;;;;;;;;;;;;31.46;34.04;100501.33;1795277;79;20219;-57
2022/06/10 11:35:11;;;;;;;;;;;;;;;31.51;33.92;100497.81;1782430;79;20548;-57
2022/06/10 11:38:45;;;;;;;;;;;;;;;31.56;33.79;100492.62;1777449;80;20847;-53
2022/06/10 11:42:12;;;;;;;;;;;;;;;31.54;33.58;100494.95;1765929;80;20290;-57
2022/06/10 11:45:24;;;;;;;;;;;;;;;31.48;33.37;100491.36;1778374;80;20601;-56
2022/06/10 11:48:50;;;;;;;;;;;;;;;31.48;33.28;100496.17;1795267;79;20240;-58
2022/06/10 11:52:09;;;;;;;;;;;;;;;31.39;32.99;100482.48;1795669;79;20217;-57
2022/06/10 11:55:26;;;;;;;;;;;;;;;31.40;32.84;100485.56;1788050;79;20609;-57
2022/06/10 12:02:01;;;;;;;;;;;;;;;31.45;32.70;100482.64;1774888;79;20258;-58
2022/06/10 12:05:27;;;;;;;;;;;;;;;31.40;32.56;100480.75;1764717;81;20282;-57
2022/06/10 12:08:39;;;;;;;;;;;;;;;31.41;32.42;100495.75;1764950;81;20223;-58
2022/06/10 12:12:07;;;;;;;;;;;;;;;31.33;32.16;100490.80;1793902;80;20327;-56
2022/06/10 12:15:32;;;;;;;;;;;;;;;31.27;32.06;100494.84;1788461;79;20255;-59
2022/06/10 12:18:39;;;;;;;;;;;;;;;31.21;31.92;100488.98;1776885;80;20548;-59
2022/06/10 12:21:45;;;;;;;;;;;;;;;31.13;31.69;100491.13;1783880;79;20284;-61
2022/06/10 12:24:53;;;;;;;;;;;;;;;31.00;31.61;100484.84;1769704;79;20419;-60
2022/06/10 12:28:04;;;;;;;;;;;;;;;30.98;31.55;100492.78;1782128;79;20261;-59
2022/06/10 12:31:26;;;;;;;;;;;;;;;30.98;31.50;100482.32;1795391;79;20285;-59
2022/06/10 12:34:40;;;;;;;;;;;;;;;30.98;31.39;100488.54;1800068;79;20568;-60
2022/06/10 12:37:51;;;;;;;;;;;;;;;30.95;31.33;100482.09;1799688;79;20630;-61
2022/06/10 12:41:09;;;;;;;;;;;;;;;30.96;31.29;100479.52;1792009;79;20623;-60
2022/06/10 12:44:23;;;;;;;;;;;;;;;30.95;31.18;100480.67;1789483;79;20623;-60
2022/06/10 12:47:43;;;;;;;;;;;;;;;30.93;31.09;100475.89;1771942;79;20209;-60
2022/06/10 12:51:12;;;;;;;;;;;;;;;30.91;30.96;100476.20;1765875;80;20689;-60
2022/06/10 12:54:37;;;;;;;;;;;;;;;30.91;30.91;100471.95;1780690;79;20216;-60
2022/06/10 12:57:49;;;;;;;;;;;;;;;30.90;30.78;100473.69;1771590;81;20800;-59
2022/06/10 13:00:56;;;;;;;;;;;;;;;30.86;30.70;100471.22;1771715;80;20301;-57
2022/06/10 13:04:05;;;;;;;;;;;;;;;30.83;30.65;100464.77;1772689;81;20194;-59
2022/06/10 13:07:13;;;;;;;;;;;;;;;30.78;30.50;100469.91;1772078;81;20214;-58
2022/06/10 13:10:42;;;;;;;;;;;;;;;30.74;30.38;100469.38;1771308;81;20222;-63
2022/06/10 13:13:48;;;;;;;;;;;;;;;30.73;30.36;100454.98;1772329;81;20611;-57
2022/06/10 13:16:54;;;;;;;;;;;;;;;30.72;30.29;100461.20;1733935;81;20270;-55
2022/06/10 13:20:05;;;;;;;;;;;;;;;30.76;30.30;100457.20;1772121;81;20219;-60
2022/06/10 13:23:19;;;;;;;;;;;;;;;30.78;30.24;100459.19;1771900;81;20287;-59
2022/06/10 13:26:24;;;;;;;;;;;;;;;30.79;30.21;100449.55;1765948;80;20621;-57
2022/06/10 13:29:30;;;;;;;;;;;;;;;30.77;30.06;100445.61;1765382;81;20198;-58
2022/06/10 13:32:35;;;;;;;;;;;;;;;30.78;29.98;100447.88;1796161;79;20181;-61
2022/06/10 13:35:45;;;;;;;;;;;;;;;30.79;29.97;100453.22;1796623;79;20224;-58
2022/06/10 13:38:51;;;;;;;;;;;;;;;30.81;29.91;100456.56;1779618;80;20252;-59
2022/06/10 13:41:58;;;;;;;;;;;;;;;30.81;29.89;100450.09;1795587;79;20196;-61
2022/06/10 13:45:15;;;;;;;;;;;;;;;30.76;29.80;100443.95;1794979;79;20200;-61
2022/06/10 13:48:29;;;;;;;;;;;;;;;30.73;29.78;100445.95;1796539;79;20253;-61
2022/06/10 13:51:42;;;;;;;;;;;;;;;30.71;29.74;100438.91;1794948;79;20636;-61
2022/06/10 13:54:41;;;;;;;;;;;;;;;30.72;29.68;100441.98;1765508;81;20598;-58
2022/06/10 13:57:49;;;;;;;;;;;;;;;30.72;29.68;100437.73;1765841;81;20547;-59
2022/06/10 14:00:58;;;;;;;;;;;;;;;30.76;29.66;100434.58;1777576;79;20207;-60
2022/06/10 14:04:07;;;;;;;;;;;;;;;30.80;29.67;100435.66;1765452;80;20227;-58
2022/06/10 14:07:16;;;;;;;;;;;;;;;30.83;29.68;100433.66;1762447;81;20226;-59
2022/06/10 14:10:28;;;;;;;;;;;;;;;30.85;29.62;100436.44;1764756;80;20278;-58
2022/06/10 14:13:34;;;;;;;;;;;;;;;30.83;29.53;100436.48;1765364;80;20223;-58
2022/06/10 14:16:41;;;;;;;;;;;;;;;30.79;29.47;100434.84;1748223;81;20506;-57
2022/06/10 14:19:47;;;;;;;;;;;;;;;30.75;29.33;100437.16;1765507;81;20207;-59
2022/06/10 14:22:53;;;;;;;;;;;;;;;30.71;29.34;100432.68;1765156;81;20231;-59
2022/06/10 14:26:18;;;;;;;;;;;;;;;30.74;29.35;100436.87;1766207;80;20551;-57
2022/06/10 14:29:50;;;;;;;;;;;;;;;30.78;29.34;100429.50;1772782;81;20233;-58
2022/06/10 14:33:07;;;;;;;;;;;;;;;30.81;29.36;100431.70;1775295;81;20546;-59
2022/06/10 14:36:24;;;;;;;;;;;;;;;30.81;29.40;100424.64;1773149;81;20255;-60
2022/06/10 14:39:31;;;;;;;;;;;;;;;30.82;29.38;100428.57;1774856;79;20547;-59
2022/06/10 14:42:39;;;;;;;;;;;;;;;30.82;29.38;100427.16;1773233;81;20206;-59
2022/06/10 14:45:45;;;;;;;;;;;;;;;30.84;29.35;100422.05;1775510;79;20223;-59
2022/06/10 14:48:50;;;;;;;;;;;;;;;30.86;29.33;100428.80;1803113;79;20200;-60
2022/06/10 14:51:57;;;;;;;;;;;;;;;30.89;29.30;100431.02;1772790;81;20593;-61
2022/06/10 14:54:56;;;;;;;;;;;;;;;30.98;29.29;100433.39;1784189;79;20244;-59
2022/06/10 14:58:05;;;;;;;;;;;;;;;31.02;29.28;100431.61;1805077;79;20299;-58
2022/06/10 15:01:09;;;;;;;;;;;;;;;31.02;29.24;100429.63;1791971;79;20607;-58
2022/06/10 15:04:16;;;;;;;;;;;;;;;31.10;29.21;100435.14;1773079;81;20214;-58
2022/06/10 15:07:25;;;;;;;;;;;;;;;31.12;29.08;100430.02;1752551;81;20238;-59
2022/06/10 15:10:33;;;;;;;;;;;;;;;31.10;29.03;100433.16;1777450;79;20626;-58
2022/06/10 15:13:43;;;;;;;;;;;;;;;31.07;28.98;100435.77;1791629;79;20623;-59
2022/06/10 15:16:51;;;;;;;;;;;;;;;31.04;28.92;100435.83;1803198;79;20220;-60
2022/06/10 15:20:00;;;;;;;;;;;;;;;31.04;28.88;100433.00;1803787;79;20215;-58
2022/06/10 15:23:04;;;;;;;;;;;;;;;31.07;28.86;100431.52;1804120;79;20560;-59
2022/06/10 15:26:10;;;;;;;;;;;;;;;31.09;28.81;100432.91;1803994;79;20585;-58
2022/06/10 15:29:20;;;;;;;;;;;;;;;31.09;28.80;100430.65;1796083;80;20572;-59
2022/06/10 15:32:27;;;;;;;;;;;;;;;31.12;28.68;100432.29;1797477;79;20193;-60
2022/06/10 15:42:23;;;;;;;;;;;;;;;31.25;28.65;100436.30;1765577;81;20298;-58
2022/06/10 15:45:29;;;;;;;;;;;;;;;31.53;28.65;100436.64;1765522;81;20555;-58
2022/06/10 15:48:37;;;;;;;;;;;;;;;31.83;28.46;100436.87;1765313;81;20183;-58
2022/06/10 15:51:45;;;;;;;;;;;;;;;31.83;28.41;100429.80;1766151;81;20191;-58
2022/06/10 15:58:24;;;;;;;;;;;;;;;32.11;28.11;100439.16;1765309;81;20212;-58
2022/06/10 16:01:27;;;;;;;;;;;;;;;31.96;28.08;100437.48;1766331;81;20558;-58
2022/06/10 16:04:33;;;;;;;;;;;;;;;32.13;28.08;100448.16;1766449;80;20547;-58
2022/06/10 16:07:37;;;;;;;;;;;;;;;32.36;27.97;100449.07;1764641;81;20219;-58
2022/06/10 16:10:42;;;;;;;;;;;;;;;32.29;27.86;100442.42;1765994;80;20274;-57
2022/06/10 16:13:47;;;;;;;;;;;;;;;32.03;27.88;100444.97;1765004;80;20234;-58
2022/06/10 16:16:53;;;;;;;;;;;;;;;31.76;27.94;100445.53;1765368;81;20271;-59
2022/06/10 16:20:02;;;;;;;;;;;;;;;31.57;27.97;100450.45;1749649;81;20634;-58
2022/06/10 16:23:08;;;;;;;;;;;;;;;31.56;28.02;100445.91;1765009;81;20215;-58
2022/06/10 16:26:15;;;;;;;;;;;;;;;31.91;27.79;100446.66;1766424;80;20610;-59
2022/06/10 16:29:25;;;;;;;;;;;;;;;32.19;27.46;100452.55;1795602;79;20201;-59
2022/06/10 16:32:30;;;;;;;;;;;;;;;32.68;27.24;100449.73;1795948;80;20228;-58
2022/06/10 16:35:39;;;;;;;;;;;;;;;32.73;26.95;100453.06;1795732;80;20240;-59
2022/06/10 16:38:44;;;;;;;;;;;;;;;32.30;27.04;100449.75;1796155;80;20216;-58
2022/06/10 16:41:54;;;;;;;;;;;;;;;31.80;27.25;100447.42;1796256;80;20588;-59
2022/06/10 16:45:01;;;;;;;;;;;;;;;31.42;27.54;100442.23;1796240;80;20192;-59
2022/06/10 16:48:07;;;;;;;;;;;;;;;31.07;27.73;100448.50;1796684;80;20560;-58